Time;durP1;ratioP1;P1;durP2;ratioP2;P2;SDS_P1;SDS_P2;PMS_P1;PMS_P2;Temp;Humidity;BMP_temperature;BMP_pressure;BME280_temperature;BME280_humidity;BME280_pressure;Samples;Min_cycle;Max_cycle;Signal;HPM_P1;HPM_P2
2023/09/18 00:00:50;;;;;;;57.17;40.97;;;;;;;17.45;100.00;100346.66;4974784;28;20077;-49
2023/09/18 00:03:20;;;;;;;58.72;43.47;;;;;;;17.87;100.00;100409.44;4974164;28;20313;-47
2023/09/18 00:05:47;;;;;;;56.08;41.42;;;;;;;17.58;100.00;100364.47;4974226;28;20031;-45
2023/09/18 00:08:13;;;;;;;53.53;42.63;;;;;;;17.47;100.00;100325.28;4973955;28;20414;-46
2023/09/18 00:10:38;;;;;;;52.42;40.92;;;;;;;17.92;100.00;100401.16;4973386;28;20070;-45
2023/09/18 00:13:04;;;;;;;52.55;40.78;;;;;;;17.95;100.00;100392.91;4974892;28;20065;-47
2023/09/18 00:15:30;;;;;;;55.95;41.28;;;;;;;17.93;100.00;100381.53;4974634;28;20135;-48
2023/09/18 00:17:56;;;;;;;50.25;39.05;;;;;;;17.99;100.00;100389.09;4974713;28;20038;-47
2023/09/18 00:20:26;;;;;;;46.15;37.88;;;;;;;18.02;100.00;100388.88;4973869;28;20115;-46
2023/09/18 00:22:52;;;;;;;47.97;38.97;;;;;;;18.05;100.00;100385.13;4974528;28;20058;-46
2023/09/18 00:25:17;;;;;;;47.35;37.20;;;;;;;18.06;100.00;100374.41;4973044;28;20042;-45
2023/09/18 00:27:43;;;;;;;50.33;37.75;;;;;;;17.61;100.00;100297.72;4974199;28;20046;-46
2023/09/18 00:30:09;;;;;;;47.35;37.25;;;;;;;17.75;100.00;100316.25;4974409;28;20034;-50
2023/09/18 00:32:34;;;;;;;52.55;39.20;;;;;;;17.72;100.00;100308.47;4974242;28;20486;-46
2023/09/18 00:34:59;;;;;;;50.83;38.58;;;;;;;17.63;100.00;100287.84;4974157;28;20050;-48
2023/09/18 00:37:25;;;;;;;50.90;38.75;;;;;;;18.07;100.00;100345.94;4974145;28;20035;-46
2023/09/18 00:39:50;;;;;;;49.70;39.70;;;;;;;18.07;100.00;100344.13;4973651;28;20031;-48
2023/09/18 00:42:17;;;;;;;53.97;40.08;;;;;;;18.04;100.00;100324.88;4971738;28;20073;-47
2023/09/18 00:44:43;;;;;;;49.13;40.60;;;;;;;17.88;100.00;100299.31;4974107;28;20130;-47
2023/09/18 00:47:09;;;;;;;50.65;40.15;;;;;;;18.08;100.00;100327.19;4972936;28;20062;-44
2023/09/18 00:49:36;;;;;;;46.67;39.22;;;;;;;18.10;100.00;100305.75;4973486;28;20062;-45
2023/09/18 00:52:02;;;;;;;51.38;39.45;;;;;;;18.06;100.00;100294.50;4974136;28;20066;-46
2023/09/18 00:54:28;;;;;;;50.35;39.95;;;;;;;17.77;100.00;100232.69;4972772;28;20038;-49
2023/09/18 00:56:54;;;;;;;52.17;40.15;;;;;;;17.93;100.00;100256.38;4973335;28;20057;-44
2023/09/18 00:59:20;;;;;;;49.38;39.60;;;;;;;17.72;100.00;100213.50;4972488;28;20038;-47
2023/09/18 01:01:48;;;;;;;48.65;40.63;;;;;;;17.74;100.00;100197.44;4973860;28;20089;-46
2023/09/18 01:04:15;;;;;;;49.38;41.08;;;;;;;17.79;100.00;100208.59;4974206;28;20027;-47
2023/09/18 01:06:40;;;;;;;45.25;39.65;;;;;;;17.96;100.00;100242.84;4972681;28;20074;-48
2023/09/18 01:09:12;;;;;;;53.13;42.03;;;;;;;17.97;100.00;100249.88;4973469;28;20073;-48
2023/09/18 01:11:55;;;;;;;52.03;39.95;;;;;;;17.98;100.00;100263.06;4973470;28;20041;-48
2023/09/18 01:14:38;;;;;;;51.38;41.33;;;;;;;17.98;100.00;100249.75;4973390;28;20122;-45
2023/09/18 01:17:05;;;;;;;52.80;40.90;;;;;;;17.76;100.00;100208.81;4956647;28;20259;-46
2023/09/18 01:19:35;;;;;;;50.55;41.22;;;;;;;17.84;100.00;100217.09;4972508;28;20035;-46
2023/09/18 01:22:00;;;;;;;48.30;39.90;;;;;;;18.01;100.00;100232.69;4973361;28;20299;-45
2023/09/18 01:24:26;;;;;;;54.50;42.45;;;;;;;17.64;100.00;100183.06;4973238;28;20491;-45
2023/09/18 01:26:51;;;;;;;52.33;42.58;;;;;;;18.03;100.00;100249.44;4973358;28;20043;-48
2023/09/18 01:29:19;;;;;;;49.03;38.85;;;;;;;18.02;100.00;100252.19;4972980;28;20131;-48
2023/09/18 01:31:44;;;;;;;53.72;42.58;;;;;;;18.04;100.00;100255.63;4973629;28;20372;-47
2023/09/18 01:34:10;;;;;;;49.95;40.15;;;;;;;18.03;100.00;100270.75;4958753;28;20146;-48
2023/09/18 01:36:35;;;;;;;51.75;40.95;;;;;;;18.04;100.00;100267.09;4952369;29;20042;-45
2023/09/18 01:39:01;;;;;;;51.92;43.65;;;;;;;17.99;100.00;100245.28;4954052;29;20035;-46
2023/09/18 01:41:26;;;;;;;51.08;41.30;;;;;;;18.09;100.00;100246.34;4936608;29;20035;-45
2023/09/18 01:43:52;;;;;;;53.85;42.10;;;;;;;17.73;100.00;100209.03;4952390;29;20027;-49
2023/09/18 01:46:18;;;;;;;53.35;42.95;;;;;;;18.01;100.00;100248.69;4951837;29;20058;-46
2023/09/18 01:48:47;;;;;;;54.15;44.75;;;;;;;17.72;100.00;100189.53;4952804;29;20641;-45
2023/09/18 01:51:16;;;;;;;51.88;42.45;;;;;;;18.03;100.00;100248.59;4953302;28;20411;-48
2023/09/18 01:53:41;;;;;;;52.80;41.67;;;;;;;17.97;100.00;100249.88;4953877;29;20519;-47
2023/09/18 01:56:07;;;;;;;50.55;39.58;;;;;;;18.02;100.00;100252.19;4953346;29;20168;-46
2023/09/18 01:58:32;;;;;;;53.13;42.92;;;;;;;17.65;100.00;100188.31;4953613;29;20506;-48
2023/09/18 02:01:00;;;;;;;52.88;42.28;;;;;;;17.92;100.00;100225.41;4954021;29;20077;-46
2023/09/18 02:03:26;;;;;;;56.00;41.45;;;;;;;17.56;100.00;100166.81;4953756;29;20122;-48
2023/09/18 02:05:51;;;;;;;48.67;40.22;;;;;;;17.63;100.00;100186.72;4954037;29;20125;-44
2023/09/18 02:08:16;;;;;;;57.15;41.95;;;;;;;17.83;100.00;100239.38;4964029;28;20138;-47
2023/09/18 02:10:42;;;;;;;49.45;40.92;;;;;;;18.01;100.00;100258.50;4972744;28;20118;-46
2023/09/18 02:13:07;;;;;;;51.95;40.25;;;;;;;17.66;100.00;100211.28;4972625;28;20525;-46
2023/09/18 02:15:35;;;;;;;48.83;39.78;;;;;;;18.06;100.00;100259.88;4972536;28;20386;-47
2023/09/18 02:18:00;;;;;;;51.85;39.65;;;;;;;17.76;100.00;100203.50;4972816;28;20046;-49
2023/09/18 02:20:25;;;;;;;48.53;41.88;;;;;;;17.78;100.00;100189.09;4974075;28;20134;-47
2023/09/18 02:22:51;;;;;;;50.05;40.30;;;;;;;18.06;100.00;100233.25;4975392;28;20047;-49
2023/09/18 02:25:17;;;;;;;48.58;38.35;;;;;;;17.82;100.00;100193.25;4976600;28;20494;-47
2023/09/18 02:27:42;;;;;;;44.55;39.05;;;;;;;17.77;100.00;100192.75;4974827;28;20039;-44
2023/09/18 02:30:09;;;;;;;48.72;39.50;;;;;;;18.14;100.00;100238.84;4976332;28;20037;-44
2023/09/18 02:32:36;;;;;;;57.42;40.00;;;;;;;18.23;100.00;100240.84;4976619;28;20039;-50
2023/09/18 02:35:01;;;;;;;51.63;40.70;;;;;;;18.25;100.00;100233.59;4976017;28;20038;-46
2023/09/18 02:37:28;;;;;;;47.85;38.78;;;;;;;18.15;100.00;100229.91;4974561;28;20130;-46
2023/09/18 02:39:54;;;;;;;46.28;39.25;;;;;;;18.16;100.00;100204.09;4974878;28;20121;-46
2023/09/18 02:42:19;;;;;;;47.17;38.80;;;;;;;18.04;100.00;100162.41;4975084;28;20130;-46
2023/09/18 02:44:45;;;;;;;47.97;39.10;;;;;;;17.75;100.00;100121.94;4975202;28;20043;-45
2023/09/18 02:47:10;;;;;;;48.88;38.22;;;;;;;18.20;100.00;100187.78;4976263;28;20069;-48
2023/09/18 02:49:35;;;;;;;49.40;40.35;;;;;;;17.81;100.00;100116.16;4976199;28;20039;-47
2023/09/18 02:52:00;;;;;;;46.47;38.70;;;;;;;18.17;100.00;100166.72;4976596;28;20034;-45
2023/09/18 02:54:27;;;;;;;50.60;38.70;;;;;;;18.06;100.00;100133.84;4962707;28;20035;-46
2023/09/18 02:56:52;;;;;;;49.38;38.42;;;;;;;17.81;100.00;100085.06;4956430;29;20059;-45
2023/09/18 02:59:17;;;;;;;46.55;37.55;;;;;;;17.81;100.00;100081.53;4956814;29;20479;-46
2023/09/18 03:01:43;;;;;;;49.38;38.25;;;;;;;17.82;100.00;100069.94;4956750;29;20051;-46
2023/09/18 03:04:08;;;;;;;47.67;38.85;;;;;;;18.11;100.00;100113.03;4955376;29;20060;-51
2023/09/18 03:06:33;;;;;;;48.88;38.03;;;;;;;18.14;100.00;100110.16;4956762;29;20084;-48
2023/09/18 03:08:58;;;;;;;46.65;37.05;;;;;;;18.13;100.00;100106.63;4956733;29;20042;-48
2023/09/18 03:11:27;;;;;;;50.80;38.97;;;;;;;17.74;100.00;100040.38;4954823;28;20043;-47
2023/09/18 03:13:52;;;;;;;51.38;37.85;;;;;;;18.12;100.00;100104.94;4956657;29;20027;-46
2023/09/18 03:16:17;;;;;;;44.22;35.30;;;;;;;17.74;100.00;100061.69;4956702;28;20027;-48
2023/09/18 03:18:43;;;;;;;51.15;38.67;;;;;;;17.75;100.00;100050.06;4975556;28;20097;-47
2023/09/18 03:21:08;;;;;;;45.95;37.78;;;;;;;18.08;100.00;100119.44;4975819;28;20037;-48
2023/09/18 03:23:34;;;;;;;49.60;37.63;;;;;;;18.09;100.00;100107.84;4975877;28;20042;-50
2023/09/18 03:25:59;;;;;;;51.03;39.45;;;;;;;18.04;100.00;100104.66;4975404;28;20035;-49
2023/09/18 03:28:25;;;;;;;50.95;39.00;;;;;;;18.01;100.00;100094.22;4975249;28;20046;-47
2023/09/18 03:30:50;;;;;;;54.88;40.38;;;;;;;18.05;100.00;100118.81;4975198;28;20542;-44
2023/09/18 03:33:15;;;;;;;45.40;37.10;;;;;;;17.94;100.00;100109.84;4960921;28;20098;-47
2023/09/18 03:35:51;;;;;;;45.83;37.03;;;;;;;18.18;100.00;100157.75;4956224;29;20396;-45
2023/09/18 03:38:17;;;;;;;47.08;37.88;;;;;;;18.24;100.00;100156.47;4955321;29;20352;-46
2023/09/18 03:40:43;;;;;;;60.33;38.75;;;;;;;17.92;100.00;100108.25;4954799;28;20028;-46
2023/09/18 03:43:09;;;;;;;49.38;36.35;;;;;;;18.35;100.00;100176.00;4955020;29;20408;-46
2023/09/18 03:45:35;;;;;;;46.35;35.50;;;;;;;18.03;100.00;100104.78;4955133;29;20114;-47
2023/09/18 03:48:00;;;;;;;45.05;35.40;;;;;;;18.28;100.00;100125.94;4955332;28;20424;-44
2023/09/18 03:50:27;;;;;;;52.10;37.63;;;;;;;18.11;100.00;100100.56;4956104;29;20035;-47
2023/09/18 03:52:52;;;;;;;54.08;39.05;;;;;;;18.47;100.00;100147.59;4955524;29;20130;-47
2023/09/18 03:55:17;;;;;;;59.75;38.10;;;;;;;18.16;100.00;100090.41;4955285;29;20123;-46
2023/09/18 03:57:44;;;;;;;48.53;33.22;;;;;;;18.54;100.00;100130.19;4954866;29;20039;-49
2023/09/18 04:00:11;;;;;;;40.92;29.60;;;;;;;18.51;100.00;100119.75;4955905;29;20039;-47
2023/09/18 04:02:36;;;;;;;39.15;28.48;;;;;;;18.57;100.00;100116.63;4954716;29;20039;-46
2023/09/18 04:05:02;;;;;;;37.08;27.67;;;;;;;18.58;100.00;100106.81;4950673;28;20039;-47
2023/09/18 04:07:27;;;;;;;34.95;26.30;;;;;;;18.35;100.00;100064.09;4974590;28;20038;-48
2023/09/18 04:09:52;;;;;;;27.85;22.20;;;;;;;18.63;100.00;100100.16;4974614;28;20039;-46
2023/09/18 04:12:17;;;;;;;18.65;16.65;;;;;;;18.57;100.00;100073.13;4972768;28;20129;-46
2023/09/18 04:14:43;;;;;;;18.55;14.52;;;;;;;18.66;100.00;100072.41;4974424;28;20125;-45
2023/09/18 04:17:08;;;;;;;19.35;15.80;;;;;;;18.57;100.00;100059.78;4974801;28;20604;-48
2023/09/18 04:19:34;;;;;;;21.65;17.08;;;;;;;18.54;100.00;100042.22;4973766;28;20299;-48
2023/09/18 04:21:59;;;;;;;20.33;16.70;;;;;;;18.63;100.00;100076.16;4956053;28;20054;-49
2023/09/18 04:24:26;;;;;;;22.30;16.27;;;;;;;18.64;100.00;100077.88;4954933;29;20058;-48
2023/09/18 04:26:51;;;;;;;21.70;17.33;;;;;;;18.62;100.00;100065.63;4955715;29;20042;-45
2023/09/18 04:29:17;;;;;;;25.13;18.58;;;;;;;18.63;100.00;100065.50;4954409;29;20035;-46
2023/09/18 04:31:43;;;;;;;26.33;18.80;;;;;;;18.12;100.00;99971.78;4955521;29;20024;-47
2023/09/18 04:34:08;;;;;;;25.40;18.60;;;;;;;18.25;100.00;99999.16;4953564;29;20038;-43
2023/09/18 04:36:34;;;;;;;28.67;20.02;;;;;;;18.19;100.00;99993.44;4954996;29;20435;-49
2023/09/18 04:38:59;;;;;;;28.67;19.48;;;;;;;18.51;100.00;100061.97;4953807;28;20043;-48
2023/09/18 04:41:24;;;;;;;32.72;20.33;;;;;;;18.49;100.00;100053.25;4954855;29;20049;-48
2023/09/18 04:43:50;;;;;;;28.40;21.65;;;;;;;18.51;100.00;100069.97;4954068;28;20042;-46
2023/09/18 04:46:16;;;;;;;34.67;22.65;;;;;;;18.31;100.00;100030.66;4954958;28;20039;-48
2023/09/18 04:48:41;;;;;;;28.10;20.75;;;;;;;18.24;100.00;100013.44;4954600;28;20086;-47
2023/09/18 04:51:06;;;;;;;29.83;20.88;;;;;;;18.57;100.00;100073.97;4954694;28;20555;-48
2023/09/18 04:53:32;;;;;;;28.40;19.60;;;;;;;18.59;100.00;100079.19;4954892;28;20130;-47
2023/09/18 04:55:57;;;;;;;27.13;19.67;;;;;;;18.45;100.00;100058.88;4953100;28;20047;-48
2023/09/18 04:58:23;;;;;;;22.88;18.50;;;;;;;18.22;100.00;100019.84;4954416;29;20110;-48
2023/09/18 05:00:55;;;;;;;21.63;17.88;;;;;;;18.26;100.00;100018.66;4954743;29;20049;-50
2023/09/18 05:03:21;;;;;;;23.15;19.70;;;;;;;18.27;100.00;100012.38;4953558;29;20062;-45
2023/09/18 05:05:46;;;;;;;27.70;18.05;;;;;;;18.67;100.00;100066.97;4953610;29;20035;-44
2023/09/18 05:08:12;;;;;;;22.08;17.40;;;;;;;18.55;100.00;100033.28;4954751;29;20082;-47
2023/09/18 05:10:37;;;;;;;23.80;18.45;;;;;;;18.28;100.00;99982.94;4954631;29;20070;-47
2023/09/18 05:13:03;;;;;;;27.15;19.98;;;;;;;18.28;100.00;99990.94;4962215;28;20038;-44
2023/09/18 05:15:32;;;;;;;23.67;19.35;;;;;;;18.63;100.00;100038.84;4970341;28;20041;-46
2023/09/18 05:17:58;;;;;;;29.10;21.65;;;;;;;18.63;100.00;100036.19;4961474;28;20546;-47
2023/09/18 05:20:25;;;;;;;32.83;22.80;;;;;;;18.60;100.00;100031.09;4966736;28;20057;-46
2023/09/18 05:22:54;;;;;;;31.08;22.50;;;;;;;18.67;100.00;100042.13;4958129;28;20447;-46
2023/09/18 05:25:24;;;;;;;28.20;22.98;;;;;;;18.66;100.00;100024.41;4959184;28;20047;-45
2023/09/18 05:27:55;;;;;;;33.30;24.27;;;;;;;18.72;100.00;100039.94;4960806;28;20035;-47
2023/09/18 05:30:25;;;;;;;31.85;21.90;;;;;;;18.74;100.00;100046.03;4952345;28;20067;-46
2023/09/18 05:32:50;;;;;;;26.10;21.45;;;;;;;18.68;100.00;100022.50;4970504;28;20089;-46
2023/09/18 05:35:16;;;;;;;31.20;21.92;;;;;;;18.79;100.00;100035.84;4970517;28;20490;-46
2023/09/18 05:37:42;;;;;;;28.52;20.98;;;;;;;18.42;100.00;99968.53;4964560;28;20384;-46
2023/09/18 05:40:11;;;;;;;25.77;19.65;;;;;;;18.74;100.00;100017.50;4953409;28;20094;-45
2023/09/18 05:42:38;;;;;;;31.98;21.65;;;;;;;18.76;100.00;100028.06;4959867;28;20050;-47
2023/09/18 05:45:06;;;;;;;23.05;18.88;;;;;;;18.53;100.00;99987.25;4946794;28;20039;-45
2023/09/18 05:47:32;;;;;;;24.65;20.50;;;;;;;18.68;100.00;100001.19;4964009;28;20130;-49
2023/09/18 05:49:58;;;;;;;23.75;18.25;;;;;;;18.72;100.00;100011.47;4957200;28;20526;-46
2023/09/18 05:52:24;;;;;;;27.10;19.80;;;;;;;18.57;100.00;99988.69;4953590;28;20504;-45
2023/09/18 05:54:50;;;;;;;21.35;19.02;;;;;;;18.42;100.00;99955.19;4969333;28;20542;-45
2023/09/18 05:57:16;;;;;;;25.23;19.30;;;;;;;18.75;100.00;100024.56;4964858;28;20058;-46
2023/09/18 05:59:43;;;;;;;26.42;20.50;;;;;;;18.78;100.00;100026.97;4953673;28;20495;-45
2023/09/18 06:02:09;;;;;;;27.00;19.98;;;;;;;18.78;100.00;100026.13;4953802;28;20043;-47
2023/09/18 06:04:36;;;;;;;29.50;21.70;;;;;;;18.39;100.00;99969.63;4951810;29;20093;-43
2023/09/18 06:07:03;;;;;;;27.13;22.15;;;;;;;18.71;100.00;100036.41;4953898;28;20674;-45
2023/09/18 06:09:28;;;;;;;31.60;22.85;;;;;;;18.69;100.00;100035.69;4965774;28;20446;-46
2023/09/18 06:11:53;;;;;;;35.75;24.63;;;;;;;18.71;100.00;100048.94;4959261;28;20119;-45
2023/09/18 06:14:19;;;;;;;31.40;25.27;;;;;;;18.35;100.00;99986.81;4953100;28;20448;-45
2023/09/18 06:16:44;;;;;;;34.25;26.08;;;;;;;18.68;100.00;100041.16;4988899;28;20038;-45
2023/09/18 06:19:09;;;;;;;36.83;27.42;;;;;;;18.32;100.00;99975.56;4976631;28;20075;-45
2023/09/18 06:21:34;;;;;;;41.15;28.17;;;;;;;18.71;100.00;100039.09;4972320;28;20070;-45
2023/09/18 06:24:00;;;;;;;37.78;27.33;;;;;;;18.77;100.00;100056.41;4972025;28;20114;-48
2023/09/18 06:26:25;;;;;;;41.30;29.27;;;;;;;18.44;100.00;99986.13;4953167;28;20031;-47
2023/09/18 06:28:52;;;;;;;39.67;28.75;;;;;;;18.78;100.00;100032.31;4977588;28;20077;-49
2023/09/18 06:31:18;;;;;;;36.00;27.90;;;;;;;18.81;100.00;100033.88;4985998;28;20027;-45
2023/09/18 06:33:43;;;;;;;38.03;27.23;;;;;;;18.71;100.00;100039.09;4962004;28;20039;-44
2023/09/18 06:36:09;;;;;;;35.42;28.80;;;;;;;18.34;100.00;99977.13;4967766;28;20039;-49
2023/09/18 06:38:34;;;;;;;35.53;27.70;;;;;;;18.53;100.00;99995.25;4986089;28;20449;-44
2023/09/18 06:40:59;;;;;;;37.25;27.33;;;;;;;18.76;100.00;100026.25;4989479;28;20031;-43
2023/09/18 06:43:25;;;;;;;30.63;24.30;;;;;;;18.81;100.00;100021.41;4955093;28;20039;-46
2023/09/18 06:45:50;;;;;;;27.65;21.13;;;;;;;18.62;100.00;99977.66;4962214;28;20038;-45
2023/09/18 06:48:16;;;;;;;25.85;19.10;;;;;;;18.87;100.00;100028.06;4970947;28;20062;-46
2023/09/18 06:50:42;;;;;;;19.92;17.35;;;;;;;18.92;100.00;100026.72;4971061;28;20541;-48
2023/09/18 06:53:08;;;;;;;17.85;15.88;;;;;;;18.93;100.00;100030.25;4969792;28;20035;-45
2023/09/18 06:55:33;;;;;;;16.40;13.35;;;;;;;18.53;100.00;99965.94;4954680;28;20039;-47
2023/09/18 06:57:58;;;;;;;15.27;12.80;;;;;;;18.83;100.00;100029.28;4968675;28;20081;-46
2023/09/18 07:00:25;;;;;;;13.95;12.32;;;;;;;18.84;100.00;100025.66;4967054;28;20050;-48
2023/09/18 07:02:50;;;;;;;16.40;11.95;;;;;;;18.67;100.00;99999.47;4952748;28;20039;-45
2023/09/18 07:05:15;;;;;;;14.55;11.80;;;;;;;18.48;100.00;99960.94;4965546;28;20129;-46
2023/09/18 07:07:41;;;;;;;13.52;12.00;;;;;;;18.80;100.00;100016.19;4964626;28;20075;-48
2023/09/18 07:10:06;;;;;;;13.13;11.63;;;;;;;18.84;100.00;100031.84;4958047;28;20038;-45
2023/09/18 07:12:32;;;;;;;12.05;10.55;;;;;;;18.50;100.00;99974.97;4956947;28;20047;-44
2023/09/18 07:15:02;;;;;;;12.30;8.73;;;;;;;18.58;100.00;99984.19;4958991;28;20039;-48
2023/09/18 07:17:28;;;;;;;9.50;8.23;;;;;;;18.53;100.00;99969.41;4963974;28;20043;-46
2023/09/18 07:19:54;;;;;;;10.95;8.10;;;;;;;18.46;100.00;99975.31;4975287;28;20097;-45
2023/09/18 07:22:19;;;;;;;9.65;8.07;;;;;;;18.90;100.00;100020.69;4961336;28;20034;-48
2023/09/18 07:24:45;;;;;;;8.05;6.70;;;;;;;18.58;100.00;99958.41;4966407;28;20066;-46
2023/09/18 07:27:11;;;;;;;7.72;6.43;;;;;;;18.97;100.00;100024.53;4975575;28;20062;-44
2023/09/18 07:29:36;;;;;;;7.85;6.47;;;;;;;18.51;100.00;99960.69;4958689;28;20093;-47
2023/09/18 07:32:02;;;;;;;9.57;5.70;;;;;;;18.65;100.00;99983.59;4963037;28;20050;-52
2023/09/18 07:34:27;;;;;;;6.03;5.40;;;;;;;18.86;100.00;100027.22;4956245;29;20035;-48
2023/09/18 07:36:55;;;;;;;7.97;5.65;;;;;;;18.64;100.00;99981.06;4956958;28;20094;-46
2023/09/18 07:39:20;;;;;;;8.38;5.13;;;;;;;18.99;100.00;100035.09;4955594;28;20032;-45
2023/09/18 07:41:47;;;;;;;8.80;5.55;;;;;;;19.07;100.00;100048.66;4959142;28;20039;-46
2023/09/18 07:44:13;;;;;;;6.13;5.60;;;;;;;19.07;100.00;100044.19;4955815;29;20499;-47
2023/09/18 07:46:38;;;;;;;6.00;5.40;;;;;;;19.13;100.00;100050.84;4964765;28;20042;-48
2023/09/18 07:49:03;;;;;;;5.90;4.60;;;;;;;19.22;100.00;100059.94;4973673;28;20130;-46
2023/09/18 07:51:30;;;;;;;6.13;4.32;;;;;;;19.26;100.00;100042.72;4971431;28;20109;-49
2023/09/18 07:53:55;;;;;;;6.03;5.10;;;;;;;19.48;100.00;100048.03;4974334;28;20038;-51
2023/09/18 07:56:21;;;;;;;12.63;4.90;;;;;;;19.61;100.00;100064.75;4971507;28;20134;-47
2023/09/18 07:58:46;;;;;;;5.00;4.32;;;;;;;19.67;100.00;100062.41;4955430;29;20043;-52
2023/09/18 08:01:12;;;;;;;6.90;4.53;;;;;;;19.50;100.00;100022.06;4961607;28;20525;-54
2023/09/18 08:03:37;;;;;;;6.43;4.18;;;;;;;19.94;100.00;100067.28;4975011;28;20448;-49
2023/09/18 08:06:04;;;;;;;7.85;3.83;;;;;;;20.05;100.00;100037.03;4973643;28;20102;-49
2023/09/18 08:08:32;;;;;;;5.10;3.45;;;;;;;20.48;100.00;100075.22;4974573;28;20074;-44
2023/09/18 08:10:58;;;;;;;10.95;3.55;;;;;;;20.89;100.00;100078.81;4963850;28;20035;-46
2023/09/18 08:13:24;;;;;;;5.18;3.35;;;;;;;21.19;100.00;100042.22;4954739;28;20432;-46
2023/09/18 08:15:50;;;;;;;3.88;3.08;;;;;;;22.11;100.00;100093.72;4955549;29;20058;-49
2023/09/18 08:18:16;;;;;;;4.93;3.10;;;;;;;22.48;100.00;100115.28;4957031;28;20497;-48
2023/09/18 08:20:44;;;;;;;5.97;2.92;;;;;;;22.70;100.00;100105.13;4963978;28;20066;-49
2023/09/18 08:23:10;;;;;;;6.20;3.28;;;;;;;23.04;100.00;100121.56;4954782;29;20070;-46
2023/09/18 08:25:36;;;;;;;4.82;2.53;;;;;;;22.94;100.00;100073.25;4953282;29;20535;-48
2023/09/18 08:28:01;;;;;;;4.35;2.75;;;;;;;23.35;100.00;100116.78;4954281;28;20043;-46
2023/09/18 08:30:27;;;;;;;4.05;2.40;;;;;;;23.07;100.00;100085.50;4960189;28;20043;-48
2023/09/18 08:32:52;;;;;;;2.78;2.20;;;;;;;23.50;100.00;100102.72;4955087;28;20066;-47
2023/09/18 08:35:17;;;;;;;3.13;2.55;;;;;;;24.09;100.00;100163.19;4954802;29;20038;-47
2023/09/18 08:37:43;;;;;;;4.53;2.35;;;;;;;23.72;100.00;100112.22;4955010;29;20039;-47
2023/09/18 08:40:15;;;;;;;2.90;2.35;;;;;;;23.30;100.00;100121.72;4953142;28;20420;-48
2023/09/18 08:42:47;;;;;;;2.90;2.58;;;;;;;23.02;100.00;100162.97;4956080;28;20027;-47
2023/09/18 08:45:41;;;;;;;3.65;2.40;;;;;;;22.05;100.00;100096.94;4954869;29;20058;-46
2023/09/18 08:48:07;;;;;;;4.63;2.25;;;;;;;21.44;100.00;100090.91;4954636;28;20070;-47
2023/09/18 08:50:33;;;;;;;3.63;2.70;;;;;;;21.09;100.00;100094.88;4968249;28;20873;-51
2023/09/18 08:52:59;;;;;;;5.05;2.80;;;;;;;21.16;100.00;100140.69;4963414;28;20071;-47
2023/09/18 08:55:24;;;;;;;3.45;2.92;;;;;;;21.13;100.00;100138.28;4955896;28;20031;-46
2023/09/18 08:57:51;;;;;;;3.35;2.38;;;;;;;21.16;100.00;100157.56;4953278;29;20046;-49
2023/09/18 09:00:17;;;;;;;6.10;3.13;;;;;;;21.05;100.00;100149.59;4954699;29;20039;-52
2023/09/18 09:02:44;;;;;;;2.90;2.70;;;;;;;20.97;100.00;100157.44;4954049;28;20142;-51
2023/09/18 09:05:09;;;;;;;4.40;2.88;;;;;;;20.67;100.00;100103.88;4965621;28;20042;-48
2023/09/18 09:07:34;;;;;;;6.43;2.65;;;;;;;21.13;100.00;100162.34;4973402;28;20037;-51
2023/09/18 09:10:00;;;;;;;3.65;2.70;;;;;;;21.22;100.00;100167.72;4972378;28;20042;-49
2023/09/18 09:12:57;;;;;;;4.25;3.08;;;;;;;21.36;100.00;100169.22;4956388;28;20042;-48
2023/09/18 09:15:46;;;;;;;5.00;2.80;;;;;;;21.41;100.00;100185.72;4952722;28;20035;-46
2023/09/18 09:18:12;;;;;;;5.93;2.75;;;;;;;21.34;100.00;100160.47;4972481;28;20046;-54
2023/09/18 09:20:38;;;;;;;2.95;2.75;;;;;;;21.55;100.00;100180.00;4962284;28;20039;-51
2023/09/18 09:23:06;;;;;;;2.95;2.58;;;;;;;21.43;100.00;100122.16;4972136;28;20043;-47
2023/09/18 09:25:33;;;;;;;2.97;2.65;;;;;;;21.63;100.00;100141.81;4971078;28;20053;-46
2023/09/18 09:28:04;;;;;;;4.75;2.30;;;;;;;22.02;100.00;100193.72;4973160;28;20047;-50
2023/09/18 09:30:30;;;;;;;4.93;2.47;;;;;;;22.11;100.00;100184.84;4973072;28;20046;-47
2023/09/18 09:32:57;;;;;;;3.47;2.67;;;;;;;22.28;100.00;100182.31;4961353;28;20487;-49
2023/09/18 09:35:27;;;;;;;4.20;2.53;;;;;;;23.14;100.00;100205.59;4955403;28;20034;-50
2023/09/18 09:38:11;;;;;;;2.55;2.30;;;;;;;23.78;100.00;100165.38;4968635;28;20062;-47
2023/09/18 09:40:41;;;;;;;2.67;2.00;;;;;;;23.91;100.00;100181.97;4968306;28;20046;-51
2023/09/18 09:43:08;;;;;;;2.38;2.15;;;;;;;23.93;100.00;100206.03;4968504;28;20043;-52
2023/09/18 09:45:35;;;;;;;3.10;2.20;;;;;;;23.49;100.00;100152.09;4960180;28;20050;-52
2023/09/18 09:48:02;;;;;;;9.45;3.90;;;;;;;24.29;100.00;100182.75;4972098;28;20109;-47
2023/09/18 09:50:28;;;;;;;3.65;2.40;;;;;;;24.94;100.00;100219.19;4966575;28;20023;-48
2023/09/18 09:52:54;;;;;;;2.72;2.53;;;;;;;25.09;100.00;100226.56;4953925;28;20061;-53
2023/09/18 09:55:21;;;;;;;4.80;2.50;;;;;;;24.60;100.00;100245.97;4972736;28;20039;-52
2023/09/18 09:57:48;;;;;;;4.07;2.63;;;;;;;23.81;100.00;100231.41;4971585;28;20039;-47
2023/09/18 10:00:25;;;;;;;4.63;2.50;;;;;;;23.30;100.00;100170.91;4970024;28;20414;-49
2023/09/18 10:02:50;;;;;;;4.93;3.05;;;;;;;23.48;100.00;100238.19;4970533;28;20118;-48
2023/09/18 10:05:17;;;;;;;3.28;2.35;;;;;;;23.19;100.00;100232.00;4966058;28;20042;-48
2023/09/18 10:07:42;;;;;;;3.45;2.40;;;;;;;22.89;100.00;100190.94;4970861;28;20419;-49
2023/09/18 10:10:09;;;;;;;2.17;1.95;;;;;;;23.47;100.00;100177.38;4967941;28;20134;-49
2023/09/18 10:12:34;;;;;;;5.28;2.50;;;;;;;24.01;100.00;100231.16;4968249;28;20181;-45
2023/09/18 10:15:00;;;;;;;3.30;2.20;;;;;;;24.15;100.00;100202.09;4972719;28;20170;-49
2023/09/18 10:17:26;;;;;;;4.30;2.40;;;;;;;25.03;100.00;100221.81;4968211;28;20035;-49
2023/09/18 10:20:16;;;;;;;4.90;2.78;;;;;;;24.84;100.00;100226.53;4966884;28;20039;-50
2023/09/18 10:22:46;;;;;;;4.00;2.25;;;;;;;24.22;100.00;100144.88;4967643;28;20043;-49
2023/09/18 10:25:18;;;;;;;3.40;3.05;;;;;;;24.76;100.00;100215.66;4963662;28;20105;-50
2023/09/18 10:27:54;;;;;;;4.10;2.60;;;;;;;24.61;100.00;100224.25;4971499;28;20039;-49
2023/09/18 10:30:22;;;;;;;4.43;2.63;;;;;;;25.28;100.00;100233.59;4971258;28;20095;-49
2023/09/18 10:32:48;;;;;;;4.72;2.72;;;;;;;26.00;100.00;100181.94;4971204;28;20105;-50
2023/09/18 10:35:14;;;;;;;4.63;3.00;;;;;;;26.94;100.00;100254.53;4969356;28;20051;-49
2023/09/18 10:37:41;;;;;;;3.97;2.75;;;;;;;27.05;100.00;100237.97;4973016;28;20038;-48
2023/09/18 10:40:08;;;;;;;3.53;2.28;;;;;;;26.69;100.00;100256.31;4972433;28;20471;-48
2023/09/18 10:42:43;;;;;;;2.45;2.10;;;;;;;26.51;100.00;100252.91;4971621;28;20038;-53
2023/09/18 10:45:10;;;;;;;3.83;2.15;;;;;;;26.85;100.00;100194.25;4966560;28;20046;-48
2023/09/18 10:47:40;;;;;;;3.97;2.40;;;;;;;27.35;100.00;100251.59;4954097;29;20035;-49
2023/09/18 10:50:07;;;;;;;3.22;2.13;;;;;;;26.93;100.00;100201.50;4960473;28;20082;-52
2023/09/18 10:52:34;;;;;;;3.47;1.77;;;;;;;26.71;100.00;100184.06;4975470;28;20122;-52
2023/09/18 10:55:00;;;;;;;15.00;3.78;;;;;;;27.21;100.00;100190.16;4974489;28;20050;-54
2023/09/18 10:57:26;;;;;;;3.95;1.98;;;;;;;28.01;100.00;100260.41;4967671;28;20095;-50
2023/09/18 10:59:54;;;;;;;4.68;2.25;;;;;;;27.93;100.00;100202.59;4968469;28;20043;-50
2023/09/18 11:02:21;;;;;;;3.55;2.00;;;;;;;28.01;100.00;100217.97;4974047;28;20038;-49
2023/09/18 11:04:47;;;;;;;3.17;1.80;;;;;;;28.65;100.00;100232.19;4975070;28;20073;-52